sensor_id;sensor_type;location;lat;lon;timestamp;pressure;altitude;pressure_sealevel;temperature;humidity
59873;BME280;50750;51.636;4.948;2023-02-24T00:01:52;101802.17;;;12.36;64.50
59873;BME280;50750;51.636;4.948;2023-02-24T00:04:30;101797.77;;;12.36;64.35
59873;BME280;50750;51.636;4.948;2023-02-24T00:06:58;101796.02;;;12.36;64.49
59873;BME280;50750;51.636;4.948;2023-02-24T00:09:29;101796.88;;;12.37;64.21
59873;BME280;50750;51.636;4.948;2023-02-24T00:11:58;101793.19;;;12.37;64.27
59873;BME280;50750;51.636;4.948;2023-02-24T00:14:28;101790.73;;;12.37;64.31
59873;BME280;50750;51.636;4.948;2023-02-24T00:16:56;101789.50;;;12.37;64.32
59873;BME280;50750;51.636;4.948;2023-02-24T00:19:26;101790.58;;;12.36;64.36
59873;BME280;50750;51.636;4.948;2023-02-24T00:21:55;101786.20;;;12.36;64.36
59873;BME280;50750;51.636;4.948;2023-02-24T00:24:22;101782.34;;;12.35;64.40
59873;BME280;50750;51.636;4.948;2023-02-24T00:26:52;101779.73;;;12.34;64.37
59873;BME280;50750;51.636;4.948;2023-02-24T00:29:20;101777.45;;;12.34;64.34
59873;BME280;50750;51.636;4.948;2023-02-24T00:31:51;101775.71;;;12.33;64.31
59873;BME280;50750;51.636;4.948;2023-02-24T00:34:26;101770.65;;;12.32;64.28
59873;BME280;50750;51.636;4.948;2023-02-24T00:36:53;101764.15;;;12.32;64.36
59873;BME280;50750;51.636;4.948;2023-02-24T00:39:20;101768.02;;;12.32;64.39
59873;BME280;50750;51.636;4.948;2023-02-24T00:41:55;101767.65;;;12.32;64.32
59873;BME280;50750;51.636;4.948;2023-02-24T00:44:37;101762.02;;;12.32;64.33
59873;BME280;50750;51.636;4.948;2023-02-24T00:47:06;101760.98;;;12.32;64.29
59873;BME280;50750;51.636;4.948;2023-02-24T00:49:34;101757.98;;;12.32;64.33
59873;BME280;50750;51.636;4.948;2023-02-24T00:52:01;101750.08;;;12.32;64.27
59873;BME280;50750;51.636;4.948;2023-02-24T00:54:30;101746.73;;;12.33;64.27
59873;BME280;50750;51.636;4.948;2023-02-24T00:56:56;101743.41;;;12.33;64.24
59873;BME280;50750;51.636;4.948;2023-02-24T00:59:23;101739.20;;;12.32;64.30
59873;BME280;50750;51.636;4.948;2023-02-24T01:01:50;101738.52;;;12.32;64.14
59873;BME280;50750;51.636;4.948;2023-02-24T01:04:17;101735.02;;;12.31;64.24
59873;BME280;50750;51.636;4.948;2023-02-24T01:06:48;101734.15;;;12.31;64.19
59873;BME280;50750;51.636;4.948;2023-02-24T01:09:19;101735.03;;;12.31;64.29
59873;BME280;50750;51.636;4.948;2023-02-24T01:11:47;101731.02;;;12.29;64.17
59873;BME280;50750;51.636;4.948;2023-02-24T01:14:34;101727.19;;;12.28;64.18
59873;BME280;50750;51.636;4.948;2023-02-24T01:17:02;101725.98;;;12.27;64.28
59873;BME280;50750;51.636;4.948;2023-02-24T01:19:31;101726.16;;;12.27;64.34
59873;BME280;50750;51.636;4.948;2023-02-24T01:22:04;101718.25;;;12.27;64.21
59873;BME280;50750;51.636;4.948;2023-02-24T01:24:36;101716.84;;;12.28;64.29
59873;BME280;50750;51.636;4.948;2023-02-24T01:27:04;101717.36;;;12.28;64.23
59873;BME280;50750;51.636;4.948;2023-02-24T01:29:31;101709.98;;;12.28;64.19
59873;BME280;50750;51.636;4.948;2023-02-24T01:31:57;101705.74;;;12.29;64.15
59873;BME280;50750;51.636;4.948;2023-02-24T01:34:26;101701.36;;;12.28;64.02
59873;BME280;50750;51.636;4.948;2023-02-24T01:36:53;101698.89;;;12.29;64.14
59873;BME280;50750;51.636;4.948;2023-02-24T01:39:20;101696.64;;;12.28;63.95
59873;BME280;50750;51.636;4.948;2023-02-24T01:41:49;101696.99;;;12.28;63.97
59873;BME280;50750;51.636;4.948;2023-02-24T01:46:47;101688.05;;;12.27;63.99
59873;BME280;50750;51.636;4.948;2023-02-24T01:49:20;101680.34;;;12.26;63.93
59873;BME280;50750;51.636;4.948;2023-02-24T01:54:25;101669.48;;;12.24;63.91
59873;BME280;50750;51.636;4.948;2023-02-24T01:56:55;101661.60;;;12.24;63.94
59873;BME280;50750;51.636;4.948;2023-02-24T01:59:26;101662.70;;;12.23;63.77
59873;BME280;50750;51.636;4.948;2023-02-24T02:01:56;101655.84;;;12.22;63.90
59873;BME280;50750;51.636;4.948;2023-02-24T02:04:46;101651.29;;;12.22;63.84
59873;BME280;50750;51.636;4.948;2023-02-24T02:07:17;101641.98;;;12.22;63.82
59873;BME280;50750;51.636;4.948;2023-02-24T02:09:45;101637.92;;;12.23;63.89
59873;BME280;50750;51.636;4.948;2023-02-24T02:12:12;101630.90;;;12.23;63.71
59873;BME280;50750;51.636;4.948;2023-02-24T02:14:44;101625.98;;;12.23;63.74
59873;BME280;50750;51.636;4.948;2023-02-24T02:18:25;101619.30;;;12.24;63.62
59873;BME280;50750;51.636;4.948;2023-02-24T02:37:09;101596.40;;;12.19;63.60
59873;BME280;50750;51.636;4.948;2023-02-24T02:39:55;101590.47;;;12.18;63.73
59873;BME280;50750;51.636;4.948;2023-02-24T02:42:41;101589.98;;;12.16;63.71
59873;BME280;50750;51.636;4.948;2023-02-24T02:48:08;101586.45;;;12.17;63.60
59873;BME280;50750;51.636;4.948;2023-02-24T02:50:58;101584.18;;;12.16;63.72
59873;BME280;50750;51.636;4.948;2023-02-24T02:53:34;101582.95;;;12.17;63.63
59873;BME280;50750;51.636;4.948;2023-02-24T02:58:35;101580.84;;;12.17;63.64
59873;BME280;50750;51.636;4.948;2023-02-24T03:01:04;101578.90;;;12.18;63.59
59873;BME280;50750;51.636;4.948;2023-02-24T03:03:44;101576.27;;;12.17;63.46
59873;BME280;50750;51.636;4.948;2023-02-24T03:06:31;101575.58;;;12.16;63.55
59873;BME280;50750;51.636;4.948;2023-02-24T03:11:26;101563.14;;;12.15;63.50
59873;BME280;50750;51.636;4.948;2023-02-24T03:13:55;101559.66;;;12.14;63.60
59873;BME280;50750;51.636;4.948;2023-02-24T03:16:23;101561.94;;;12.14;63.56
59873;BME280;50750;51.636;4.948;2023-02-24T03:19:00;101554.75;;;12.13;63.59
59873;BME280;50750;51.636;4.948;2023-02-24T03:21:36;101550.39;;;12.13;63.50
59873;BME280;50750;51.636;4.948;2023-02-24T03:24:04;101544.80;;;12.12;63.52
59873;BME280;50750;51.636;4.948;2023-02-24T03:26:41;101542.70;;;12.11;63.40
59873;BME280;50750;51.636;4.948;2023-02-24T03:29:16;101541.98;;;12.11;63.58
59873;BME280;50750;51.636;4.948;2023-02-24T03:35:06;101532.86;;;12.11;63.52
59873;BME280;50750;51.636;4.948;2023-02-24T03:37:38;101534.11;;;12.11;63.42
59873;BME280;50750;51.636;4.948;2023-02-24T03:40:07;101536.40;;;12.10;63.48
59873;BME280;50750;51.636;4.948;2023-02-24T03:42:42;101531.49;;;12.10;63.39
59873;BME280;50750;51.636;4.948;2023-02-24T03:45:15;101526.58;;;12.10;63.50
59873;BME280;50750;51.636;4.948;2023-02-24T03:47:42;101531.49;;;12.10;63.40
59873;BME280;50750;51.636;4.948;2023-02-24T03:50:18;101528.70;;;12.09;63.40
59873;BME280;50750;51.636;4.948;2023-02-24T03:58:15;101508.39;;;12.08;63.37
59873;BME280;50750;51.636;4.948;2023-02-24T04:00:57;101504.54;;;12.07;63.27
59873;BME280;50750;51.636;4.948;2023-02-24T04:03:51;101498.77;;;12.06;63.40
59873;BME280;50750;51.636;4.948;2023-02-24T04:06:43;101497.02;;;12.06;63.33
59873;BME280;50750;51.636;4.948;2023-02-24T04:09:15;101494.09;;;12.04;63.45
59873;BME280;50750;51.636;4.948;2023-02-24T04:11:55;101490.59;;;12.04;63.39
59873;BME280;50750;51.636;4.948;2023-02-24T04:14:32;101493.04;;;12.04;63.37
59873;BME280;50750;51.636;4.948;2023-02-24T04:17:16;101491.81;;;12.04;63.43
59873;BME280;50750;51.636;4.948;2023-02-24T04:19:50;101488.46;;;12.05;63.38
59873;BME280;50750;51.636;4.948;2023-02-24T04:22:19;101490.38;;;12.05;63.39
59873;BME280;50750;51.636;4.948;2023-02-24T04:24:56;101489.83;;;12.05;63.29
59873;BME280;50750;51.636;4.948;2023-02-24T04:27:25;101486.14;;;12.06;63.31
59873;BME280;50750;51.636;4.948;2023-02-24T04:29:55;101481.05;;;12.06;63.27
59873;BME280;50750;51.636;4.948;2023-02-24T04:32:27;101480.71;;;12.05;63.31
59873;BME280;50750;51.636;4.948;2023-02-24T04:35:06;101479.85;;;12.05;63.27
59873;BME280;50750;51.636;4.948;2023-02-24T04:37:35;101480.54;;;12.05;63.23
59873;BME280;50750;51.636;4.948;2023-02-24T04:40:03;101475.65;;;12.05;63.22
59873;BME280;50750;51.636;4.948;2023-02-24T04:42:39;101470.92;;;12.04;63.22
59873;BME280;50750;51.636;4.948;2023-02-24T04:45:28;101471.98;;;12.04;63.28
59873;BME280;50750;51.636;4.948;2023-02-24T04:47:58;101466.23;;;12.03;63.30
59873;BME280;50750;51.636;4.948;2023-02-24T04:50:32;101462.18;;;12.03;63.31
59873;BME280;50750;51.636;4.948;2023-02-24T04:53:02;101463.98;;;12.01;63.25
59873;BME280;50750;51.636;4.948;2023-02-24T04:55:35;101466.45;;;12.00;63.27
59873;BME280;50750;51.636;4.948;2023-02-24T04:58:11;101456.10;;;12.00;63.30
59873;BME280;50750;51.636;4.948;2023-02-24T05:00:39;101454.52;;;12.00;63.26
59873;BME280;50750;51.636;4.948;2023-02-24T05:03:09;101450.82;;;12.01;63.21
59873;BME280;50750;51.636;4.948;2023-02-24T05:05:36;101447.48;;;12.01;63.14
59873;BME280;50750;51.636;4.948;2023-02-24T05:08:06;101436.94;;;12.02;63.18
59873;BME280;50750;51.636;4.948;2023-02-24T05:10:40;101432.37;;;12.02;63.10
59873;BME280;50750;51.636;4.948;2023-02-24T05:13:07;101429.90;;;12.02;63.18
59873;BME280;50750;51.636;4.948;2023-02-24T05:15:39;101429.04;;;12.02;63.12
59873;BME280;50750;51.636;4.948;2023-02-24T05:18:08;101424.48;;;12.02;63.17
59873;BME280;50750;51.636;4.948;2023-02-24T05:20:41;101421.14;;;12.02;63.17
59873;BME280;50750;51.636;4.948;2023-02-24T05:23:31;101417.65;;;12.01;63.08
59873;BME280;50750;51.636;4.948;2023-02-24T05:26:03;101412.74;;;12.01;63.11
59873;BME280;50750;51.636;4.948;2023-02-24T05:28:36;101409.61;;;12.00;63.02
59873;BME280;50750;51.636;4.948;2023-02-24T05:33:37;101403.14;;;11.99;63.00
59873;BME280;50750;51.636;4.948;2023-02-24T05:36:07;101402.45;;;11.97;62.96
59873;BME280;50750;51.636;4.948;2023-02-24T05:38:35;101398.27;;;11.97;62.91
59873;BME280;50750;51.636;4.948;2023-02-24T05:41:09;101402.70;;;11.95;62.96
59873;BME280;50750;51.636;4.948;2023-02-24T05:43:47;101397.44;;;11.95;63.03
59873;BME280;50750;51.636;4.948;2023-02-24T05:46:19;101400.77;;;11.95;62.90
59873;BME280;50750;51.636;4.948;2023-02-24T05:48:49;101393.92;;;11.95;62.93
59873;BME280;50750;51.636;4.948;2023-02-24T05:51:17;101388.66;;;11.95;62.95
59873;BME280;50750;51.636;4.948;2023-02-24T05:53:43;101386.19;;;11.96;62.84
59873;BME280;50750;51.636;4.948;2023-02-24T05:56:10;101383.02;;;11.96;62.84
59873;BME280;50750;51.636;4.948;2023-02-24T05:58:37;101373.34;;;11.97;62.83
59873;BME280;50750;51.636;4.948;2023-02-24T06:01:11;101370.20;;;11.97;62.82
59873;BME280;50750;51.636;4.948;2023-02-24T06:03:42;101369.84;;;11.97;62.93
59873;BME280;50750;51.636;4.948;2023-02-24T06:06:15;101363.35;;;11.97;62.85
59873;BME280;50750;51.636;4.948;2023-02-24T06:08:42;101354.77;;;11.96;62.82
59873;BME280;50750;51.636;4.948;2023-02-24T06:11:18;101349.17;;;11.95;62.66
59873;BME280;50750;51.636;4.948;2023-02-24T06:13:46;101346.20;;;11.94;62.77
59873;BME280;50750;51.636;4.948;2023-02-24T06:16:14;101345.36;;;11.94;62.82
59873;BME280;50750;51.636;4.948;2023-02-24T06:18:42;101337.11;;;11.93;62.78
59873;BME280;50750;51.636;4.948;2023-02-24T06:21:10;101325.56;;;11.93;62.81
59873;BME280;50750;51.636;4.948;2023-02-24T06:23:40;101324.02;;;11.92;62.80
59873;BME280;50750;51.636;4.948;2023-02-24T06:26:07;101326.30;;;11.91;62.78
59873;BME280;50750;51.636;4.948;2023-02-24T06:28:51;101321.40;;;11.90;62.91
59873;BME280;50750;51.636;4.948;2023-02-24T06:31:19;101316.88;;;11.89;62.91
59873;BME280;50750;51.636;4.948;2023-02-24T06:33:46;101317.77;;;11.88;62.80
59873;BME280;50750;51.636;4.948;2023-02-24T06:36:13;101313.95;;;11.88;62.87
59873;BME280;50750;51.636;4.948;2023-02-24T06:38:40;101309.73;;;11.88;62.77
59873;BME280;50750;51.636;4.948;2023-02-24T06:41:07;101312.88;;;11.88;62.81
59873;BME280;50750;51.636;4.948;2023-02-24T06:43:44;101312.70;;;11.88;62.75
59873;BME280;50750;51.636;4.948;2023-02-24T06:46:13;101310.26;;;11.87;62.88
59873;BME280;50750;51.636;4.948;2023-02-24T06:48:41;101304.64;;;11.87;62.87
59873;BME280;50750;51.636;4.948;2023-02-24T06:51:12;101303.08;;;11.87;62.79
59873;BME280;50750;51.636;4.948;2023-02-24T06:53:39;101295.38;;;11.86;62.80
59873;BME280;50750;51.636;4.948;2023-02-24T06:56:12;101298.20;;;11.85;62.85
59873;BME280;50750;51.636;4.948;2023-02-24T06:58:50;101297.68;;;11.84;62.84
59873;BME280;50750;51.636;4.948;2023-02-24T07:01:22;101286.85;;;11.83;62.97
59873;BME280;50750;51.636;4.948;2023-02-24T07:03:52;101280.20;;;11.82;62.88
59873;BME280;50750;51.636;4.948;2023-02-24T07:06:36;101269.36;;;11.81;62.82
59873;BME280;50750;51.636;4.948;2023-02-24T07:09:08;101261.49;;;11.80;62.89
59873;BME280;50750;51.636;4.948;2023-02-24T07:11:41;101259.23;;;11.79;62.90
59873;BME280;50750;51.636;4.948;2023-02-24T07:14:09;101266.81;;;11.78;62.93
59873;BME280;50750;51.636;4.948;2023-02-24T07:16:37;101269.64;;;11.77;62.87
59873;BME280;50750;51.636;4.948;2023-02-24T07:19:11;101267.00;;;11.77;62.82
59873;BME280;50750;51.636;4.948;2023-02-24T07:21:41;101267.89;;;11.76;63.00
59873;BME280;50750;51.636;4.948;2023-02-24T07:24:19;101270.57;;;11.75;62.94
59873;BME280;50750;51.636;4.948;2023-02-24T07:26:55;101270.70;;;11.76;62.87
59873;BME280;50750;51.636;4.948;2023-02-24T07:29:24;101277.71;;;11.77;62.84
59873;BME280;50750;51.636;4.948;2023-02-24T07:31:51;101273.35;;;11.76;62.74
59873;BME280;50750;51.636;4.948;2023-02-24T07:34:23;101274.55;;;11.77;62.76
59873;BME280;50750;51.636;4.948;2023-02-24T07:36:51;101266.84;;;11.77;62.78
59873;BME280;50750;51.636;4.948;2023-02-24T07:39:18;101262.63;;;11.77;62.69
59873;BME280;50750;51.636;4.948;2023-02-24T07:41:45;101261.21;;;11.77;62.77
59873;BME280;50750;51.636;4.948;2023-02-24T07:44:16;101255.77;;;11.78;62.69
59873;BME280;50750;51.636;4.948;2023-02-24T07:46:44;101255.61;;;11.77;62.67
59873;BME280;50750;51.636;4.948;2023-02-24T07:49:14;101250.37;;;11.76;62.74
59873;BME280;50750;51.636;4.948;2023-02-24T07:51:41;101249.84;;;11.76;62.71
59873;BME280;50750;51.636;4.948;2023-02-24T07:54:09;101239.50;;;11.76;62.69
59873;BME280;50750;51.636;4.948;2023-02-24T07:56:36;101233.59;;;11.75;62.60
59873;BME280;50750;51.636;4.948;2023-02-24T07:59:12;101225.18;;;11.73;62.67
59873;BME280;50750;51.636;4.948;2023-02-24T08:01:41;101228.01;;;11.73;62.59
59873;BME280;50750;51.636;4.948;2023-02-24T08:04:21;101227.31;;;11.72;62.69
59873;BME280;50750;51.636;4.948;2023-02-24T08:06:49;101224.00;;;11.72;62.76
59873;BME280;50750;51.636;4.948;2023-02-24T08:09:26;101215.07;;;11.71;62.65
59873;BME280;50750;51.636;4.948;2023-02-24T08:12:13;101206.48;;;11.70;62.69
59873;BME280;50750;51.636;4.948;2023-02-24T08:14:51;101206.66;;;11.70;62.78
59873;BME280;50750;51.636;4.948;2023-02-24T08:17:21;101210.52;;;11.70;62.82
59873;BME280;50750;51.636;4.948;2023-02-24T08:19:49;101205.61;;;11.70;62.68
59873;BME280;50750;51.636;4.948;2023-02-24T08:22:23;101205.60;;;11.71;62.55
59873;BME280;50750;51.636;4.948;2023-02-24T08:24:58;101203.83;;;11.72;62.55
59873;BME280;50750;51.636;4.948;2023-02-24T08:27:33;101199.95;;;11.72;62.74
59873;BME280;50750;51.636;4.948;2023-02-24T08:30:08;101192.92;;;11.72;62.51
59873;BME280;50750;51.636;4.948;2023-02-24T08:32:42;101183.44;;;11.73;62.49
59873;BME280;50750;51.636;4.948;2023-02-24T08:35:11;101179.41;;;11.73;62.60
59873;BME280;50750;51.636;4.948;2023-02-24T08:37:51;101175.02;;;11.73;62.52
59873;BME280;50750;51.636;4.948;2023-02-24T08:40:22;101170.45;;;11.73;62.57
59873;BME280;50750;51.636;4.948;2023-02-24T08:43:09;101174.16;;;11.72;62.66
59873;BME280;50750;51.636;4.948;2023-02-24T08:48:11;101159.63;;;11.71;62.56
59873;BME280;50750;51.636;4.948;2023-02-24T08:50:54;101157.70;;;11.71;62.58
59873;BME280;50750;51.636;4.948;2023-02-24T08:53:23;101151.92;;;11.71;62.54
59873;BME280;50750;51.636;4.948;2023-02-24T08:55:55;101143.52;;;11.70;62.47
59873;BME280;50750;51.636;4.948;2023-02-24T08:58:21;101135.30;;;11.69;62.49
59873;BME280;50750;51.636;4.948;2023-02-24T09:00:56;101133.56;;;11.69;62.45
59873;BME280;50750;51.636;4.948;2023-02-24T09:03:27;101126.73;;;11.69;62.59
59873;BME280;50750;51.636;4.948;2023-02-24T09:06:18;101124.98;;;11.69;62.77
59873;BME280;50750;51.636;4.948;2023-02-24T09:08:54;101126.52;;;11.70;62.65
59873;BME280;50750;51.636;4.948;2023-02-24T09:11:39;101121.08;;;11.70;62.48
59873;BME280;50750;51.636;4.948;2023-02-24T09:14:11;101119.63;;;11.71;62.57
59873;BME280;50750;51.636;4.948;2023-02-24T09:16:43;101110.64;;;11.72;62.59
59873;BME280;50750;51.636;4.948;2023-02-24T09:22:08;101101.31;;;11.74;62.37
59873;BME280;50750;51.636;4.948;2023-02-24T09:24:59;101101.98;;;11.75;62.54
59873;BME280;50750;51.636;4.948;2023-02-24T09:30:27;101097.77;;;11.75;62.41
59873;BME280;50750;51.636;4.948;2023-02-24T09:33:16;101096.52;;;11.76;62.46
59873;BME280;50750;51.636;4.948;2023-02-24T09:36:04;101092.87;;;11.75;62.56
59873;BME280;50750;51.636;4.948;2023-02-24T09:39:00;101094.80;;;11.75;62.52
59873;BME280;50750;51.636;4.948;2023-02-24T09:44:33;101090.80;;;11.73;62.60
59873;BME280;50750;51.636;4.948;2023-02-24T09:47:25;101087.14;;;11.72;62.45
59873;BME280;50750;51.636;4.948;2023-02-24T09:52:53;101082.45;;;11.71;62.58
59873;BME280;50750;51.636;4.948;2023-02-24T09:55:41;101080.38;;;11.70;62.52
59873;BME280;50750;51.636;4.948;2023-02-24T10:01:36;101074.29;;;11.68;62.54
59873;BME280;50750;51.636;4.948;2023-02-24T10:06:41;101059.89;;;11.69;62.62
59873;BME280;50750;51.636;4.948;2023-02-24T10:12:07;101070.40;;;11.69;62.47
59873;BME280;50750;51.636;4.948;2023-02-24T10:17:26;101070.19;;;11.70;62.43
59873;BME280;50750;51.636;4.948;2023-02-24T10:20:13;101068.08;;;11.70;62.38
59873;BME280;50750;51.636;4.948;2023-02-24T10:23:03;101058.79;;;11.70;62.31
59873;BME280;50750;51.636;4.948;2023-02-24T10:25:52;101051.60;;;11.70;62.36
59873;BME280;50750;51.636;4.948;2023-02-24T10:31:12;101042.32;;;11.70;62.38
59873;BME280;50750;51.636;4.948;2023-02-24T10:34:04;101037.23;;;11.69;62.33
59873;BME280;50750;51.636;4.948;2023-02-24T10:36:33;101033.23;;;11.69;62.45
59873;BME280;50750;51.636;4.948;2023-02-24T10:39:16;101032.54;;;11.68;62.41
59873;BME280;50750;51.636;4.948;2023-02-24T10:41:48;101032.91;;;11.68;62.44
59873;BME280;50750;51.636;4.948;2023-02-24T10:44:20;101029.79;;;11.67;62.50
59873;BME280;50750;51.636;4.948;2023-02-24T10:47:00;101031.73;;;11.66;62.38
59873;BME280;50750;51.636;4.948;2023-02-24T10:49:43;101028.44;;;11.65;62.38
59873;BME280;50750;51.636;4.948;2023-02-24T10:55:06;101026.73;;;11.64;62.54
59873;BME280;50750;51.636;4.948;2023-02-24T10:58:05;101025.33;;;11.64;62.60
59873;BME280;50750;51.636;4.948;2023-02-24T11:00:47;101024.98;;;11.63;62.63
59873;BME280;50750;51.636;4.948;2023-02-24T11:03:27;101027.09;;;11.63;62.59
59873;BME280;50750;51.636;4.948;2023-02-24T11:06:24;101026.88;;;11.65;62.62
59873;BME280;50750;51.636;4.948;2023-02-24T11:14:58;101014.55;;;11.66;62.63
59873;BME280;50750;51.636;4.948;2023-02-24T11:17:49;101005.08;;;11.66;62.69
59873;BME280;50750;51.636;4.948;2023-02-24T11:22:50;100992.11;;;11.65;62.67
59873;BME280;50750;51.636;4.948;2023-02-24T11:25:32;100995.30;;;11.65;62.69
59873;BME280;50750;51.636;4.948;2023-02-24T11:28:00;100996.54;;;11.64;62.62
59873;BME280;50750;51.636;4.948;2023-02-24T11:30:46;100981.13;;;11.64;62.73
59873;BME280;50750;51.636;4.948;2023-02-24T11:34:01;100977.64;;;11.63;62.68
59873;BME280;50750;51.636;4.948;2023-02-24T11:36:56;100984.66;;;11.63;62.79
59873;BME280;50750;51.636;4.948;2023-02-24T11:39:58;100979.95;;;11.62;62.72
59873;BME280;50750;51.636;4.948;2023-02-24T11:42:43;100975.56;;;11.62;62.79
59873;BME280;50750;51.636;4.948;2023-02-24T11:45:18;100972.43;;;11.61;62.76
59873;BME280;50750;51.636;4.948;2023-02-24T11:47:56;100965.77;;;11.61;62.88
59873;BME280;50750;51.636;4.948;2023-02-24T11:50:54;100967.54;;;11.61;62.96
59873;BME280;50750;51.636;4.948;2023-02-24T11:56:10;100959.13;;;11.60;62.85
59873;BME280;50750;51.636;4.948;2023-02-24T11:58:44;100959.42;;;11.62;62.94
59873;BME280;50750;51.636;4.948;2023-02-24T12:01:38;100950.98;;;11.63;63.08
59873;BME280;50750;51.636;4.948;2023-02-24T12:04:28;100943.77;;;11.64;63.10
59873;BME280;50750;51.636;4.948;2023-02-24T12:09:50;100937.21;;;11.65;63.01
59873;BME280;50750;51.636;4.948;2023-02-24T12:12:27;100932.65;;;11.65;63.07
59873;BME280;50750;51.636;4.948;2023-02-24T12:14:59;100937.02;;;11.66;62.96
59873;BME280;50750;51.636;4.948;2023-02-24T12:17:40;100927.39;;;11.65;63.07
59873;BME280;50750;51.636;4.948;2023-02-24T12:23:14;100910.39;;;11.65;63.23
59873;BME280;50750;51.636;4.948;2023-02-24T12:28:25;100905.17;;;11.64;63.11
59873;BME280;50750;51.636;4.948;2023-02-24T12:37:25;100912.20;;;11.64;63.24
59873;BME280;50750;51.636;4.948;2023-02-24T12:40:14;100895.39;;;11.62;63.19
59873;BME280;50750;51.636;4.948;2023-02-24T12:50:52;100873.40;;;11.65;63.41
59873;BME280;50750;51.636;4.948;2023-02-24T12:58:38;100866.84;;;11.67;63.45
59873;BME280;50750;51.636;4.948;2023-02-24T13:07:00;100864.85;;;11.68;63.44
59873;BME280;50750;51.636;4.948;2023-02-24T13:10:04;100853.45;;;11.68;63.33
59873;BME280;50750;51.636;4.948;2023-02-24T13:12:54;100859.58;;;11.69;63.47
59873;BME280;50750;51.636;4.948;2023-02-24T13:15:26;100852.23;;;11.68;63.48
59873;BME280;50750;51.636;4.948;2023-02-24T13:17:56;100843.64;;;11.68;63.46
59873;BME280;50750;51.636;4.948;2023-02-24T13:22:55;100852.77;;;11.68;63.61
59873;BME280;50750;51.636;4.948;2023-02-24T13:25:32;100848.92;;;11.67;63.50
59873;BME280;50750;51.636;4.948;2023-02-24T13:28:02;100834.71;;;11.67;63.56
59873;BME280;50750;51.636;4.948;2023-02-24T13:30:33;100838.04;;;11.67;63.57
59873;BME280;50750;51.636;4.948;2023-02-24T13:33:21;100833.09;;;11.68;63.61
59873;BME280;50750;51.636;4.948;2023-02-24T13:35:52;100821.50;;;11.69;63.70
59873;BME280;50750;51.636;4.948;2023-02-24T13:44:18;100810.02;;;11.71;63.65
59873;BME280;50750;51.636;4.948;2023-02-24T13:50:00;100803.31;;;11.72;63.68
59873;BME280;50750;51.636;4.948;2023-02-24T14:01:08;100791.22;;;11.72;63.71
59873;BME280;50750;51.636;4.948;2023-02-24T14:03:37;100795.63;;;11.72;63.74
59873;BME280;50750;51.636;4.948;2023-02-24T14:06:19;100797.91;;;11.72;63.68
59873;BME280;50750;51.636;4.948;2023-02-24T14:09:02;100803.35;;;11.71;63.73
59873;BME280;50750;51.636;4.948;2023-02-24T14:11:33;100793.20;;;11.70;63.80
59873;BME280;50750;51.636;4.948;2023-02-24T14:14:02;100793.73;;;11.70;63.84
59873;BME280;50750;51.636;4.948;2023-02-24T14:16:32;100783.57;;;11.70;63.80
59873;BME280;50750;51.636;4.948;2023-02-24T14:19:12;100776.71;;;11.70;63.80
59873;BME280;50750;51.636;4.948;2023-02-24T14:21:57;100774.94;;;11.71;63.90
59873;BME280;50750;51.636;4.948;2023-02-24T14:24:26;100776.67;;;11.72;63.86
59873;BME280;50750;51.636;4.948;2023-02-24T14:26:55;100776.48;;;11.72;63.92
59873;BME280;50750;51.636;4.948;2023-02-24T14:29:25;100772.73;;;11.73;63.87
59873;BME280;50750;51.636;4.948;2023-02-24T14:31:55;100775.20;;;11.74;63.92
59873;BME280;50750;51.636;4.948;2023-02-24T14:34:24;100781.50;;;11.74;63.81
59873;BME280;50750;51.636;4.948;2023-02-24T14:36:55;100786.42;;;11.74;63.91
59873;BME280;50750;51.636;4.948;2023-02-24T14:39:27;100782.38;;;11.74;63.87
59873;BME280;50750;51.636;4.948;2023-02-24T14:42:11;100787.66;;;11.73;63.87
59873;BME280;50750;51.636;4.948;2023-02-24T14:44:42;100789.43;;;11.73;63.87
59873;BME280;50750;51.636;4.948;2023-02-24T14:47:10;100784.52;;;11.73;63.78
59873;BME280;50750;51.636;4.948;2023-02-24T14:49:37;100776.84;;;11.72;63.88
59873;BME280;50750;51.636;4.948;2023-02-24T14:52:18;100777.92;;;11.71;63.84
59873;BME280;50750;51.636;4.948;2023-02-24T14:55:02;100778.63;;;11.71;63.87
59873;BME280;50750;51.636;4.948;2023-02-24T14:57:37;100778.83;;;11.70;63.83
59873;BME280;50750;51.636;4.948;2023-02-24T15:00:16;100777.84;;;11.69;63.91
59873;BME280;50750;51.636;4.948;2023-02-24T15:02:54;100772.40;;;11.69;63.82
59873;BME280;50750;51.636;4.948;2023-02-24T15:05:25;100781.66;;;11.70;63.80
59873;BME280;50750;51.636;4.948;2023-02-24T15:07:51;100792.71;;;11.70;63.82
59873;BME280;50750;51.636;4.948;2023-02-24T15:10:21;100790.57;;;11.71;63.78
59873;BME280;50750;51.636;4.948;2023-02-24T15:13:06;100793.18;;;11.71;63.69
59873;BME280;50750;51.636;4.948;2023-02-24T15:15:36;100776.85;;;11.72;63.76
59873;BME280;50750;51.636;4.948;2023-02-24T15:18:22;100772.77;;;11.73;63.69
59873;BME280;50750;51.636;4.948;2023-02-24T15:21:01;100780.14;;;11.73;63.59
59873;BME280;50750;51.636;4.948;2023-02-24T15:23:34;100774.51;;;11.73;63.64
59873;BME280;50750;51.636;4.948;2023-02-24T15:26:03;100771.88;;;11.73;63.52
59873;BME280;50750;51.636;4.948;2023-02-24T15:28:35;100771.54;;;11.73;63.44
59873;BME280;50750;51.636;4.948;2023-02-24T15:31:08;100772.43;;;11.73;63.45
59873;BME280;50750;51.636;4.948;2023-02-24T15:33:43;100765.40;;;11.73;63.47
59873;BME280;50750;51.636;4.948;2023-02-24T15:36:21;100764.91;;;11.72;63.37
59873;BME280;50750;51.636;4.948;2023-02-24T15:39:18;100772.65;;;11.72;63.37
59873;BME280;50750;51.636;4.948;2023-02-24T15:41:50;100780.73;;;11.71;63.29
59873;BME280;50750;51.636;4.948;2023-02-24T15:44:35;100778.81;;;11.70;63.22
59873;BME280;50750;51.636;4.948;2023-02-24T15:47:21;100776.39;;;11.70;63.30